Time;durP1;ratioP1;P1;durP2;ratioP2;P2;SDS_P1;SDS_P2;PMS_P1;PMS_P2;Temp;Humidity;BMP_temperature;BMP_pressure;BME280_temperature;BME280_humidity;BME280_pressure;Samples;Min_cycle;Max_cycle;Signal;HPM_P1;HPM_P2
2023/04/07 00:00:36;;;;;;;1.48;1.40;;;;;;;3.23;79.74;98996.06;4484902;32;35110;-85
2023/04/07 00:03:06;;;;;;;1.60;1.50;;;;;;;3.52;78.63;98993.84;4470808;32;33417;-84
2023/04/07 00:05:34;;;;;;;1.40;1.30;;;;;;;3.42;78.97;98994.56;4485155;32;34298;-84
2023/04/07 00:08:02;;;;;;;0.90;0.90;;;;;;;3.53;77.97;98993.00;4472332;32;34938;-84
2023/04/07 00:10:31;;;;;;;2.87;2.67;;;;;;;3.20;79.41;98984.00;4473036;32;34825;-84
2023/04/07 00:12:59;;;;;;;0.88;0.88;;;;;;;3.53;78.34;98989.53;4473231;32;34108;-84
2023/04/07 00:15:27;;;;;;;0.70;0.70;;;;;;;3.34;78.90;98996.19;4486955;32;33807;-85
2023/04/07 00:17:55;;;;;;;1.35;1.25;;;;;;;3.31;78.79;98991.00;4486733;32;35853;-84
2023/04/07 00:20:23;;;;;;;0.60;0.60;;;;;;;2.97;79.70;98990.56;4487028;32;34358;-84
2023/04/07 00:22:51;;;;;;;0.80;0.80;;;;;;;2.98;80.02;98990.59;4472782;32;33418;-84
2023/04/07 00:25:20;;;;;;;1.17;1.17;;;;;;;2.95;81.34;98985.38;4487021;32;34950;-84
2023/04/07 00:27:48;;;;;;;0.75;0.75;;;;;;;2.93;80.61;98986.19;4486877;32;35033;-84
2023/04/07 00:30:16;;;;;;;1.00;1.00;;;;;;;2.94;80.55;98991.38;4459959;32;33413;-84
2023/04/07 00:32:45;;;;;;;1.30;1.30;;;;;;;2.86;80.37;98982.69;4486834;32;33529;-85
2023/04/07 00:35:13;;;;;;;0.80;0.80;;;;;;;3.14;79.17;98983.06;4472835;32;33660;-85
2023/04/07 00:37:41;;;;;;;1.52;1.42;;;;;;;3.04;80.28;98982.09;4472768;32;35893;-84
2023/04/07 00:40:09;;;;;;;0.80;0.80;;;;;;;3.29;79.42;98977.25;4460074;32;34693;-85
2023/04/07 00:42:37;;;;;;;1.25;1.15;;;;;;;3.38;78.85;98977.38;4472765;32;34092;-84
2023/04/07 00:45:06;;;;;;;1.83;1.73;;;;;;;3.36;78.91;98979.06;4486909;32;34687;-85
2023/04/07 00:47:34;;;;;;;1.25;1.12;;;;;;;3.29;79.01;98969.53;4486678;32;34610;-85
2023/04/07 00:50:03;;;;;;;1.48;1.37;;;;;;;3.60;77.69;98974.22;4486734;32;35195;-84
2023/04/07 00:52:32;;;;;;;1.10;1.10;;;;;;;3.30;78.81;98968.69;4472831;32;34211;-85
2023/04/07 00:55:01;;;;;;;1.98;1.87;;;;;;;3.54;77.36;98973.25;4472977;32;33687;-85
2023/04/07 00:57:29;;;;;;;4.62;3.97;;;;;;;3.32;79.15;98970.44;4486612;32;35039;-84
2023/04/07 00:59:57;;;;;;;0.88;0.88;;;;;;;3.23;79.63;98976.34;4486730;32;34697;-84
2023/04/07 01:02:35;;;;;;;2.58;1.65;;;;;;;3.18;80.09;98966.84;4486701;32;33332;-85
2023/04/07 01:05:12;;;;;;;1.08;1.08;;;;;;;3.27;79.68;98961.81;4472575;32;34655;-85
2023/04/07 01:07:59;;;;;;;1.00;1.00;;;;;;;3.17;79.20;98963.38;4486988;32;35061;-85
2023/04/07 01:10:45;;;;;;;7.37;4.12;;;;;;;3.36;78.31;98963.63;4486878;32;34041;-84
2023/04/07 01:13:27;;;;;;;1.15;1.12;;;;;;;3.10;79.01;98959.00;4486641;32;33415;-85
2023/04/07 01:15:57;;;;;;;1.27;0.75;;;;;;;3.08;79.85;98952.97;4459976;32;33231;-85
2023/04/07 01:18:31;;;;;;;1.20;1.10;;;;;;;3.01;80.93;98953.75;4472286;32;34892;-84
2023/04/07 01:21:03;;;;;;;1.67;1.58;;;;;;;3.04;80.03;98946.06;4472711;32;35025;-85
2023/04/07 01:24:07;;;;;;;1.10;1.10;;;;;;;3.01;79.59;98946.03;4472915;32;33519;-85
2023/04/07 01:26:36;;;;;;;0.93;0.93;;;;;;;3.32;78.71;98956.69;4472448;32;34009;-85
2023/04/07 01:29:23;;;;;;;2.03;1.95;;;;;;;3.28;78.46;98950.63;4472456;32;35013;-85
2023/04/07 01:31:53;;;;;;;1.05;1.05;;;;;;;3.20;78.78;98952.28;4486476;32;34308;-85
2023/04/07 01:34:24;;;;;;;1.83;1.73;;;;;;;3.49;76.90;98947.47;4472499;32;33379;-84
2023/04/07 01:36:54;;;;;;;2.65;2.50;;;;;;;3.29;77.07;98946.38;4486622;32;33710;-84
2023/04/07 01:39:25;;;;;;;0.75;0.75;;;;;;;3.64;75.76;98944.22;4472618;32;34254;-85
2023/04/07 01:41:54;;;;;;;1.40;1.35;;;;;;;3.77;75.39;98946.03;4472318;32;33639;-85
2023/04/07 01:44:23;;;;;;;2.17;1.87;;;;;;;3.66;75.67;98942.50;4459231;32;32209;-85
2023/04/07 01:46:53;;;;;;;1.83;1.75;;;;;;;3.70;75.26;98943.41;4472322;32;33889;-84
2023/04/07 01:49:22;;;;;;;2.40;2.30;;;;;;;3.89;74.28;98940.16;4472230;32;35093;-85
2023/04/07 01:51:51;;;;;;;0.73;0.73;;;;;;;3.71;75.00;98940.00;4486270;32;35007;-84
2023/04/07 01:54:19;;;;;;;1.70;1.30;;;;;;;3.67;75.12;98938.22;4472193;32;33419;-84
2023/04/07 01:56:47;;;;;;;0.60;0.60;;;;;;;3.70;75.58;98935.69;4472205;32;33845;-84
2023/04/07 01:59:16;;;;;;;0.75;0.75;;;;;;;3.44;75.50;98941.41;4486383;32;35413;-85
2023/04/07 02:01:44;;;;;;;0.90;0.90;;;;;;;3.42;76.38;98943.97;4472596;32;34517;-85
2023/04/07 02:04:32;;;;;;;0.85;0.85;;;;;;;3.97;74.67;98938.53;4486161;32;33349;-85
2023/04/07 02:07:15;;;;;;;0.60;0.60;;;;;;;4.11;73.36;98935.19;4486268;32;33872;-84
2023/04/07 02:09:46;;;;;;;0.75;0.75;;;;;;;3.88;74.84;98940.16;4459753;32;35865;-86
2023/04/07 02:12:15;;;;;;;2.10;2.00;;;;;;;4.18;73.45;98942.13;4486189;32;34041;-84
2023/04/07 02:14:43;;;;;;;1.05;1.05;;;;;;;3.81;73.82;98944.34;4472484;32;33434;-85
2023/04/07 02:17:13;;;;;;;0.70;0.70;;;;;;;4.01;73.87;98943.69;4486424;32;33918;-85
2023/04/07 02:19:43;;;;;;;2.15;2.05;;;;;;;3.38;76.17;98941.34;4472091;32;35758;-84
2023/04/07 02:22:11;;;;;;;1.08;1.08;;;;;;;3.66;75.49;98939.06;4472021;32;34261;-84
2023/04/07 02:24:42;;;;;;;0.90;0.90;;;;;;;3.61;75.31;98939.88;4458929;32;33182;-84
2023/04/07 02:27:10;;;;;;;1.85;1.75;;;;;;;3.80;74.73;98937.50;4486144;32;33600;-84
2023/04/07 02:29:38;;;;;;;0.90;0.90;;;;;;;3.82;74.65;98945.25;4485134;32;35115;-84
2023/04/07 02:32:06;;;;;;;0.70;0.70;;;;;;;3.66;75.75;98941.66;4486037;32;34400;-85
2023/04/07 02:34:35;;;;;;;1.33;1.23;;;;;;;3.92;75.33;98945.34;4471875;32;32327;-84
2023/04/07 02:37:03;;;;;;;0.80;0.80;;;;;;;3.66;76.79;98942.50;4471569;32;33482;-85
2023/04/07 02:39:33;;;;;;;2.05;1.95;;;;;;;4.06;75.49;98942.03;4472219;32;37065;-85
2023/04/07 02:42:01;;;;;;;1.37;1.27;;;;;;;3.69;76.43;98941.66;4485928;32;34307;-84
2023/04/07 02:44:30;;;;;;;1.80;1.70;;;;;;;3.46;78.14;98934.59;4485803;32;33465;-84
2023/04/07 02:46:58;;;;;;;1.02;1.02;;;;;;;3.46;78.45;98939.72;4458655;32;33777;-84
2023/04/07 02:49:26;;;;;;;1.70;1.60;;;;;;;3.66;77.64;98941.66;4471923;32;34388;-84
2023/04/07 02:51:54;;;;;;;1.55;1.45;;;;;;;3.55;79.06;98939.81;4485868;32;35067;-84
2023/04/07 02:54:22;;;;;;;1.10;1.10;;;;;;;3.82;78.31;98938.38;4485835;32;34039;-83
2023/04/07 02:56:50;;;;;;;0.95;0.95;;;;;;;3.53;79.00;98940.63;4472099;32;33774;-84
2023/04/07 02:59:18;;;;;;;1.10;1.10;;;;;;;3.59;78.71;98936.41;4471909;32;34695;-84
2023/04/07 03:01:46;;;;;;;1.08;1.08;;;;;;;3.56;79.57;98933.81;4485994;32;34471;-85
2023/04/07 03:04:15;;;;;;;1.05;1.05;;;;;;;3.57;79.22;98938.12;4471983;32;33340;-86
2023/04/07 03:06:44;;;;;;;1.92;1.77;;;;;;;3.48;80.95;98940.59;4471710;32;33897;-85
2023/04/07 03:09:13;;;;;;;2.87;2.65;;;;;;;3.70;79.36;98933.09;4472000;32;35050;-84
2023/04/07 03:11:41;;;;;;;0.60;0.60;;;;;;;3.68;79.68;98930.50;4485600;32;34467;-85
2023/04/07 03:14:09;;;;;;;0.70;0.70;;;;;;;3.66;79.60;98936.50;4485894;32;34151;-84
2023/04/07 03:16:38;;;;;;;1.42;1.40;;;;;;;3.40;81.00;98940.50;4471898;32;33926;-84
2023/04/07 03:19:08;;;;;;;1.08;1.08;;;;;;;3.64;79.87;98938.19;4485591;32;35868;-85
2023/04/07 03:21:37;;;;;;;1.33;1.25;;;;;;;3.57;80.17;98935.53;4471432;32;33970;-85
2023/04/07 03:24:06;;;;;;;0.70;0.70;;;;;;;3.72;79.63;98936.56;4458491;32;32566;-85
2023/04/07 03:26:34;;;;;;;1.15;1.12;;;;;;;3.51;79.53;98937.19;4471516;32;34013;-85
2023/04/07 03:29:03;;;;;;;1.42;1.35;;;;;;;3.45;80.04;98938.00;4485377;32;35680;-84
2023/04/07 03:31:31;;;;;;;0.60;0.60;;;;;;;3.55;80.41;98934.66;4485624;32;34303;-84
2023/04/07 03:33:59;;;;;;;5.00;4.62;;;;;;;3.59;80.40;98933.84;4485428;32;33355;-84
2023/04/07 03:36:27;;;;;;;5.25;2.15;;;;;;;3.45;81.10;98938.00;4471240;32;32538;-84
2023/04/07 03:38:56;;;;;;;1.33;0.82;;;;;;;3.59;79.70;98931.28;4471563;32;35461;-85
2023/04/07 03:41:25;;;;;;;2.05;1.87;;;;;;;3.66;80.47;98931.34;4471985;32;34081;-85
2023/04/07 03:43:53;;;;;;;0.60;0.60;;;;;;;3.67;80.18;98938.22;4487224;32;34082;-85
2023/04/07 03:46:22;;;;;;;0.80;0.80;;;;;;;3.78;78.85;98931.47;4487147;32;33483;-85
2023/04/07 03:48:51;;;;;;;1.27;1.27;;;;;;;3.83;78.54;98923.78;4473097;32;34604;-85
2023/04/07 03:51:20;;;;;;;0.88;0.88;;;;;;;3.75;78.51;98923.72;4473514;32;34335;-84
2023/04/07 03:53:49;;;;;;;0.70;0.70;;;;;;;4.05;76.34;98924.84;4487456;32;33441;-84
2023/04/07 03:56:19;;;;;;;1.35;1.00;;;;;;;4.03;76.70;98929.13;4473052;32;32955;-84
2023/04/07 03:58:48;;;;;;;0.80;0.80;;;;;;;4.45;75.05;98925.19;4473512;32;34890;-85
2023/04/07 04:01:16;;;;;;;2.60;2.42;;;;;;;3.38;78.95;98929.31;4487028;32;34074;-84
2023/04/07 04:03:45;;;;;;;0.60;0.60;;;;;;;3.89;77.57;98927.28;4487070;32;33793;-84
2023/04/07 04:06:15;;;;;;;1.37;1.30;;;;;;;3.56;79.12;98932.94;4473515;32;32689;-85
2023/04/07 04:08:43;;;;;;;0.82;0.82;;;;;;;3.98;77.89;98932.50;4486899;32;35799;-85
2023/04/07 04:11:12;;;;;;;0.80;0.80;;;;;;;4.12;77.44;98926.63;4487005;32;34978;-85
2023/04/07 04:13:41;;;;;;;2.05;1.95;;;;;;;3.75;78.21;98936.59;4472815;32;32670;-84
2023/04/07 04:16:09;;;;;;;4.25;2.22;;;;;;;3.53;79.86;98935.50;4486943;32;34358;-84
2023/04/07 04:18:42;;;;;;;1.52;1.05;;;;;;;3.45;79.95;98943.13;4473568;32;35032;-85
2023/04/07 04:21:11;;;;;;;1.00;1.00;;;;;;;3.62;79.65;98940.75;4487273;32;34499;-84
2023/04/07 04:23:40;;;;;;;1.23;1.23;;;;;;;3.80;77.79;98940.06;4472695;32;32484;-85
2023/04/07 04:26:08;;;;;;;1.33;1.25;;;;;;;3.71;79.21;98947.72;4472934;32;33441;-84
2023/04/07 04:28:36;;;;;;;1.23;1.12;;;;;;;3.50;78.71;98950.91;4473113;32;35096;-85
2023/04/07 04:31:07;;;;;;;2.05;1.95;;;;;;;3.44;79.68;98948.25;4487208;32;33155;-84
2023/04/07 04:33:37;;;;;;;0.70;0.70;;;;;;;3.88;78.39;98953.91;4473333;32;33076;-84
2023/04/07 04:36:06;;;;;;;2.35;1.20;;;;;;;4.18;76.31;98957.59;4459819;32;32493;-85
2023/04/07 04:38:34;;;;;;;1.12;1.12;;;;;;;4.08;77.45;98960.97;4487055;32;35884;-84
2023/04/07 04:41:03;;;;;;;0.80;0.80;;;;;;;3.92;77.78;98955.66;4486841;32;34016;-84
2023/04/07 04:43:31;;;;;;;2.70;2.10;;;;;;;3.69;79.11;98963.16;4486790;31;33301;-82
2023/04/07 04:45:59;;;;;;;1.35;1.25;;;;;;;3.99;76.75;98957.44;4486926;32;33532;-84
2023/04/07 04:48:28;;;;;;;1.75;1.65;;;;;;;4.27;76.24;98957.69;4487009;31;34978;-84
2023/04/07 04:50:56;;;;;;;2.00;1.87;;;;;;;4.17;77.10;98963.63;4473007;32;35196;-85
2023/04/07 04:53:24;;;;;;;0.70;0.70;;;;;;;3.96;77.64;98961.69;4486113;32;34181;-85
2023/04/07 04:55:54;;;;;;;0.65;0.65;;;;;;;4.57;76.01;98966.53;4473055;32;34601;-85
2023/04/07 04:58:23;;;;;;;1.58;1.48;;;;;;;3.93;78.00;98967.66;4486811;32;35017;-85
2023/04/07 05:00:56;;;;;;;2.37;2.00;;;;;;;4.28;76.49;98964.56;4472803;32;34359;-85
2023/04/07 05:03:27;;;;;;;2.15;2.00;;;;;;;4.59;75.37;98969.09;4473425;32;33676;-85
2023/04/07 05:05:56;;;;;;;2.00;1.85;;;;;;;4.47;76.84;98975.03;4486932;32;33318;-85
2023/04/07 05:08:24;;;;;;;1.02;1.02;;;;;;;4.97;73.31;98971.91;4486537;32;34595;-84
2023/04/07 05:10:54;;;;;;;4.05;2.20;;;;;;;4.29;75.88;98966.28;4486854;32;34073;-85
2023/04/07 05:13:24;;;;;;;1.45;1.27;;;;;;;3.98;77.37;98971.16;4486695;32;33125;-85
2023/04/07 05:15:53;;;;;;;1.00;1.00;;;;;;;4.38;76.62;98980.97;4486587;32;35284;-85
2023/04/07 05:18:21;;;;;;;1.00;1.00;;;;;;;4.49;75.13;98981.91;4486280;32;35689;-84
2023/04/07 05:20:49;;;;;;;2.17;2.08;;;;;;;4.34;76.66;98989.50;4486788;32;34314;-84
2023/04/07 05:23:19;;;;;;;2.65;2.47;;;;;;;4.03;77.52;98983.25;4473073;32;33110;-85
2023/04/07 05:25:47;;;;;;;1.62;1.52;;;;;;;4.23;76.80;98973.09;4472328;32;33824;-85
2023/04/07 05:28:15;;;;;;;1.75;1.65;;;;;;;4.28;76.70;98963.69;4472414;32;35449;-85
2023/04/07 05:30:44;;;;;;;1.50;1.15;;;;;;;4.20;76.58;98979.09;4486510;31;34086;-85
2023/04/07 05:33:12;;;;;;;5.12;2.90;;;;;;;4.34;76.69;98984.34;4486425;32;34345;-85
2023/04/07 05:35:43;;;;;;;1.52;1.42;;;;;;;4.39;76.07;98982.69;4472659;32;33966;-85
2023/04/07 05:38:12;;;;;;;1.05;0.98;;;;;;;4.75;75.35;98995.00;4486642;32;35033;-84
2023/04/07 05:40:41;;;;;;;3.40;2.80;;;;;;;3.71;80.00;98996.66;4486589;32;34717;-85
2023/04/07 05:43:09;;;;;;;1.35;1.30;;;;;;;4.30;77.20;98998.94;4486449;32;34148;-85
2023/04/07 05:45:38;;;;;;;1.55;1.45;;;;;;;4.12;78.72;98997.06;4486286;32;34654;-84
2023/04/07 05:48:06;;;;;;;0.80;0.80;;;;;;;4.46;76.28;98993.91;4486304;32;35875;-85
2023/04/07 05:50:35;;;;;;;1.30;1.20;;;;;;;4.23;78.77;99002.31;4486511;32;34595;-84
2023/04/07 05:53:04;;;;;;;1.55;1.45;;;;;;;3.89;79.99;99008.84;4486482;32;33318;-84
2023/04/07 05:55:32;;;;;;;0.90;0.90;;;;;;;4.65;76.88;99000.94;4486545;32;33464;-83
2023/04/07 05:58:01;;;;;;;1.10;1.10;;;;;;;4.96;74.81;99000.28;4486135;32;35130;-84
2023/04/07 06:00:30;;;;;;;1.15;1.05;;;;;;;4.66;75.05;98997.53;4486475;32;34380;-85
2023/04/07 06:02:58;;;;;;;1.90;1.65;;;;;;;4.21;77.99;98998.84;4486506;32;33512;-87
2023/04/07 06:05:27;;;;;;;1.98;1.87;;;;;;;4.77;75.00;98997.59;4486326;32;33376;-85
2023/04/07 06:07:55;;;;;;;1.67;1.58;;;;;;;4.61;76.36;98999.19;4486240;32;35921;-85
2023/04/07 06:10:25;;;;;;;1.10;1.10;;;;;;;5.06;74.31;98997.78;4486439;32;34442;-85
2023/04/07 06:12:53;;;;;;;0.65;0.65;;;;;;;5.19;73.78;98996.16;4472180;32;34116;-85
2023/04/07 06:15:21;;;;;;;1.20;1.20;;;;;;;4.89;74.99;98994.25;4459219;32;33808;-85
2023/04/07 06:17:50;;;;;;;1.87;1.77;;;;;;;4.91;75.13;99001.13;4486096;32;35011;-85
2023/04/07 06:20:20;;;;;;;2.75;1.17;;;;;;;4.74;74.90;98997.56;4485888;32;35284;-85
2023/04/07 06:22:48;;;;;;;1.10;1.10;;;;;;;5.10;74.07;98999.53;4472415;32;33889;-85
2023/04/07 06:25:16;;;;;;;0.95;0.95;;;;;;;5.07;73.59;98991.78;4486167;31;33953;-85
2023/04/07 06:27:45;;;;;;;0.98;0.98;;;;;;;5.12;73.17;98992.66;4485995;32;34699;-86
2023/04/07 06:30:13;;;;;;;0.93;0.93;;;;;;;5.34;72.45;98992.75;4485992;32;35392;-85
2023/04/07 06:32:41;;;;;;;0.85;0.85;;;;;;;5.22;72.73;99009.03;4486030;32;33434;-85
2023/04/07 06:35:10;;;;;;;1.10;1.10;;;;;;;5.16;73.46;98998.69;4485952;32;34792;-84
2023/04/07 06:37:38;;;;;;;3.25;3.00;;;;;;;5.11;73.15;99005.56;4471904;32;35025;-85
2023/04/07 06:40:07;;;;;;;0.90;0.90;;;;;;;5.42;72.73;98998.84;4485949;32;34930;-85
2023/04/07 06:42:34;;;;;;;1.30;1.20;;;;;;;4.87;74.19;99001.09;4471934;32;33802;-84
2023/04/07 06:45:05;;;;;;;0.75;0.75;;;;;;;5.11;74.30;99001.25;4472305;32;33494;-85
2023/04/07 06:47:33;;;;;;;0.70;0.70;;;;;;;5.37;71.46;99018.59;4485707;32;35830;-85
2023/04/07 06:50:01;;;;;;;1.65;1.27;;;;;;;5.27;72.36;99009.09;4471838;32;35058;-84
2023/04/07 06:52:29;;;;;;;1.45;1.35;;;;;;;5.37;71.61;99008.28;4471552;32;32606;-85
2023/04/07 06:54:58;;;;;;;1.87;1.23;;;;;;;5.40;73.25;99012.56;4485808;32;33799;-85
2023/04/07 06:57:26;;;;;;;0.73;0.73;;;;;;;5.26;72.79;99009.94;4485761;32;34865;-85
2023/04/07 06:59:54;;;;;;;1.45;1.15;;;;;;;5.77;69.54;99011.03;4458856;32;34467;-85
2023/04/07 07:02:22;;;;;;;2.10;1.95;;;;;;;6.02;70.46;99024.06;4485722;32;33082;-85
2023/04/07 07:04:51;;;;;;;3.30;2.15;;;;;;;6.03;70.03;99025.75;4485744;32;34327;-84
2023/04/07 07:07:19;;;;;;;2.08;1.98;;;;;;;5.43;72.45;99028.94;4471547;32;35822;-85
2023/04/07 07:09:47;;;;;;;1.62;1.52;;;;;;;5.90;71.78;99027.44;4485563;32;34830;-86
2023/04/07 07:12:16;;;;;;;1.90;1.80;;;;;;;5.45;72.45;99032.44;4471374;32;32774;-85
2023/04/07 07:14:44;;;;;;;2.00;1.90;;;;;;;5.68;72.61;99039.38;4485542;32;33598;-85
2023/04/07 07:17:13;;;;;;;2.62;2.05;;;;;;;6.14;70.06;99044.75;4485219;32;35874;-85
2023/04/07 07:19:41;;;;;;;1.00;1.00;;;;;;;6.28;69.24;99043.91;4485428;32;34417;-85
2023/04/07 07:22:10;;;;;;;2.75;1.65;;;;;;;6.13;70.71;99053.38;4471561;32;33386;-85
2023/04/07 07:24:38;;;;;;;1.83;1.73;;;;;;;6.40;68.94;99047.38;4485391;32;33797;-85
2023/04/07 07:27:06;;;;;;;0.68;0.68;;;;;;;6.00;69.98;99043.84;4485362;32;34919;-84
2023/04/07 07:29:34;;;;;;;4.50;1.33;;;;;;;5.77;70.16;99054.06;4485237;32;35007;-85
2023/04/07 07:32:03;;;;;;;3.10;2.80;;;;;;;5.81;70.87;99055.81;4485376;32;33615;-85
2023/04/07 07:34:31;;;;;;;1.12;1.12;;;;;;;5.92;70.07;99055.84;4485287;32;33874;-85
2023/04/07 07:36:59;;;;;;;1.37;1.33;;;;;;;5.65;72.26;99062.66;4471239;32;34885;-85
2023/04/07 07:39:28;;;;;;;0.95;0.95;;;;;;;5.98;71.11;99067.12;4471190;32;34845;-84
2023/04/07 07:41:56;;;;;;;1.23;1.23;;;;;;;6.33;69.82;99065.47;4485200;32;33327;-85
2023/04/07 07:44:24;;;;;;;1.35;1.33;;;;;;;6.33;69.32;99068.06;4485224;32;33801;-84
2023/04/07 07:46:53;;;;;;;1.60;1.50;;;;;;;6.55;69.03;99075.00;4484952;32;35016;-85
2023/04/07 07:49:21;;;;;;;2.67;2.47;;;;;;;6.69;69.69;99075.00;4485058;32;34420;-85
2023/04/07 07:51:48;;;;;;;3.87;3.50;;;;;;;6.45;70.20;99078.41;4485010;32;33413;-85
2023/04/07 07:54:17;;;;;;;0.90;0.90;;;;;;;6.23;71.43;99077.53;4471074;32;34782;-85
2023/04/07 07:56:45;;;;;;;1.20;0.93;;;;;;;6.69;71.09;99076.72;4484944;32;34942;-85
2023/04/07 07:59:13;;;;;;;1.08;0.98;;;;;;;6.66;72.72;99080.19;4484889;32;34377;-85
2023/04/07 08:01:43;;;;;;;1.25;1.23;;;;;;;6.87;71.43;99087.09;4470732;32;32697;-85
2023/04/07 08:04:12;;;;;;;0.85;0.85;;;;;;;7.12;68.48;99080.16;4470633;32;32538;-83
2023/04/07 08:06:40;;;;;;;0.85;0.85;;;;;;;7.01;68.51;99089.69;4470722;32;35024;-85
2023/04/07 08:09:08;;;;;;;2.20;1.70;;;;;;;6.89;69.08;99098.31;4470653;32;34164;-84
2023/04/07 08:11:37;;;;;;;3.03;2.75;;;;;;;6.87;68.72;99100.03;4484830;32;33563;-85
2023/04/07 08:14:05;;;;;;;0.98;0.98;;;;;;;6.98;68.13;99098.28;4484715;32;33682;-85
2023/04/07 08:16:36;;;;;;;1.15;1.10;;;;;;;6.92;69.21;99103.47;4484725;32;34455;-85
2023/04/07 08:19:05;;;;;;;1.27;1.17;;;;;;;7.37;65.91;99106.03;4484417;32;34627;-86
2023/04/07 08:21:33;;;;;;;4.03;3.72;;;;;;;7.26;67.61;99100.88;4484602;32;34396;-84
2023/04/07 08:24:01;;;;;;;1.90;1.37;;;;;;;7.26;67.58;99103.47;4470612;32;34625;-85
2023/04/07 08:26:29;;;;;;;2.75;2.55;;;;;;;7.45;67.61;99099.13;4484441;32;34953;-85
2023/04/07 08:28:57;;;;;;;2.62;1.85;;;;;;;7.44;66.88;99102.56;4486365;32;34713;-85
2023/04/07 08:31:26;;;;;;;1.08;1.08;;;;;;;7.25;68.98;99106.91;4472796;32;34250;-85
2023/04/07 08:33:56;;;;;;;1.23;1.23;;;;;;;7.22;70.09;99106.94;4486906;32;34566;-85
2023/04/07 08:36:26;;;;;;;1.30;1.20;;;;;;;7.32;68.42;99108.63;4487128;32;35295;-85
2023/04/07 08:38:54;;;;;;;2.95;2.35;;;;;;;6.99;68.96;99118.16;4486819;32;34312;-85
2023/04/07 08:41:33;;;;;;;1.70;1.52;;;;;;;7.13;69.33;99109.50;4486890;32;33344;-85
2023/04/07 08:44:02;;;;;;;1.02;1.02;;;;;;;6.74;71.03;99116.41;4472905;32;33446;-84
2023/04/07 08:46:32;;;;;;;1.92;1.42;;;;;;;6.74;69.87;99111.22;4472754;32;34864;-84
2023/04/07 08:49:01;;;;;;;0.80;0.80;;;;;;;6.51;71.02;99116.37;4486722;32;34019;-85
2023/04/07 08:51:30;;;;;;;2.08;1.98;;;;;;;6.81;70.34;99120.72;4472808;32;34259;-84
2023/04/07 08:54:06;;;;;;;2.78;2.58;;;;;;;7.03;69.92;99124.19;4472662;32;33834;-85
2023/04/07 08:56:40;;;;;;;1.92;1.83;;;;;;;6.77;70.79;99124.16;4472730;32;34605;-85
2023/04/07 08:59:10;;;;;;;0.77;0.77;;;;;;;6.48;73.21;99122.41;4486655;32;34251;-85
2023/04/07 09:01:39;;;;;;;2.60;2.40;;;;;;;6.34;74.58;99117.19;4472656;32;33127;-86
2023/04/07 09:04:09;;;;;;;1.52;1.42;;;;;;;7.02;71.21;99115.56;4486660;32;33808;-85
2023/04/07 09:06:37;;;;;;;1.35;1.25;;;;;;;7.12;70.12;99124.19;4459509;32;35225;-85
2023/04/07 09:09:05;;;;;;;1.30;1.08;;;;;;;6.67;71.77;99117.25;4472415;32;33956;-85
2023/04/07 09:11:35;;;;;;;1.37;1.05;;;;;;;6.47;73.31;99120.66;4486593;32;33540;-85
2023/04/07 09:14:03;;;;;;;2.58;2.20;;;;;;;6.61;71.42;99124.13;4472299;32;33086;-85
2023/04/07 09:16:32;;;;;;;2.62;2.42;;;;;;;6.55;71.88;99121.56;4486559;32;35118;-85
2023/04/07 09:19:00;;;;;;;1.73;1.62;;;;;;;7.15;70.74;99112.97;4486342;32;35047;-81
2023/04/07 09:21:46;;;;;;;1.62;1.52;;;;;;;7.38;69.92;99113.81;4486562;32;33306;-83
2023/04/07 09:24:25;;;;;;;4.00;1.30;;;;;;;6.95;71.24;99108.66;4472577;32;33898;-87
2023/04/07 09:27:17;;;;;;;0.88;0.88;;;;;;;7.23;72.44;99111.22;4486465;32;35879;-83
2023/04/07 09:29:46;;;;;;;3.25;3.03;;;;;;;7.75;68.99;99113.72;4486424;32;34394;-86
2023/04/07 09:32:35;;;;;;;3.62;3.42;;;;;;;6.94;69.54;99112.09;4472377;32;33026;-83
2023/04/07 09:35:04;;;;;;;2.47;2.28;;;;;;;6.96;70.39;99117.28;4472506;32;33812;-85
2023/04/07 09:37:32;;;;;;;2.62;2.50;;;;;;;7.13;70.77;99122.44;4472443;32;34849;-84
2023/04/07 09:40:00;;;;;;;0.50;0.50;;;;;;;6.48;72.97;99117.22;4471957;32;34991;-84
2023/04/07 09:42:31;;;;;;;2.10;2.00;;;;;;;7.22;71.78;99122.47;4486443;32;34249;-84
2023/04/07 09:45:00;;;;;;;4.40;3.97;;;;;;;7.48;70.08;99124.16;4486498;32;33763;-85
2023/04/07 09:47:31;;;;;;;10.52;5.03;;;;;;;7.15;69.39;99115.56;4472538;32;35840;-84
2023/04/07 09:50:05;;;;;;;1.08;1.08;;;;;;;7.87;69.08;99122.31;4472402;32;34366;-85
2023/04/07 09:52:52;;;;;;;1.00;1.00;;;;;;;7.55;68.63;99125.84;4486398;32;33134;-84
2023/04/07 09:55:21;;;;;;;3.12;1.92;;;;;;;8.56;65.77;99124.63;4486321;32;34345;-84
2023/04/07 09:57:50;;;;;;;1.73;1.62;;;;;;;8.02;66.00;99124.00;4486303;32;35380;-83
2023/04/07 10:00:18;;;;;;;2.42;1.98;;;;;;;7.50;68.79;99122.41;4486490;32;34092;-84
2023/04/07 10:02:48;;;;;;;5.65;4.97;;;;;;;8.09;65.60;99129.16;4486262;32;33277;-84
2023/04/07 10:05:16;;;;;;;4.10;2.55;;;;;;;7.48;67.08;99124.16;4486270;31;34048;-84
2023/04/07 10:07:44;;;;;;;3.28;3.05;;;;;;;7.74;67.05;99122.34;4486148;32;35998;-84
2023/04/07 10:10:12;;;;;;;1.98;1.87;;;;;;;7.38;66.53;99118.97;4472223;32;34389;-84
2023/04/07 10:12:41;;;;;;;2.67;2.42;;;;;;;7.60;67.92;99126.72;4486177;32;34381;-84
2023/04/07 10:15:14;;;;;;;1.33;1.23;;;;;;;8.44;65.76;99120.38;4472217;32;33625;-84
2023/04/07 10:17:48;;;;;;;1.95;1.42;;;;;;;8.45;65.62;99122.09;4486230;32;35143;-84
2023/04/07 10:20:17;;;;;;;1.42;1.33;;;;;;;8.15;67.58;99120.47;4486019;32;34306;-83
2023/04/07 10:22:48;;;;;;;0.95;0.95;;;;;;;8.26;65.72;99121.31;4472201;32;33337;-84
2023/04/07 10:25:18;;;;;;;1.67;1.58;;;;;;;9.29;61.92;99115.41;4471947;32;34741;-84
2023/04/07 10:27:57;;;;;;;3.37;3.17;;;;;;;9.66;61.66;99122.84;4472123;32;34849;-84
2023/04/07 10:30:27;;;;;;;2.33;1.95;;;;;;;10.08;60.30;99122.38;4472350;32;35270;-83
2023/04/07 10:32:56;;;;;;;1.33;1.25;;;;;;;9.44;63.33;99126.53;4472134;32;32190;-84
2023/04/07 10:35:28;;;;;;;1.55;1.45;;;;;;;9.86;61.86;99129.56;4471842;32;33059;-84
2023/04/07 10:38:06;;;;;;;1.40;1.30;;;;;;;8.99;62.81;99124.31;4486075;32;33936;-84
2023/04/07 10:40:35;;;;;;;2.45;2.25;;;;;;;10.04;60.88;99126.75;4485986;32;34334;-83
2023/04/07 10:43:08;;;;;;;0.80;0.80;;;;;;;9.11;57.61;99128.56;4471967;32;34299;-84
2023/04/07 10:45:52;;;;;;;1.65;1.55;;;;;;;10.04;59.76;99124.16;4485951;32;33741;-84
2023/04/07 10:48:21;;;;;;;2.40;2.08;;;;;;;9.74;59.48;99132.28;4485860;32;34940;-84
2023/04/07 10:51:05;;;;;;;2.58;2.00;;;;;;;10.13;56.07;99132.72;4470834;32;34339;-84
2023/04/07 10:53:37;;;;;;;1.12;1.12;;;;;;;9.27;60.53;99129.31;4485964;32;33518;-83
2023/04/07 10:56:05;;;;;;;3.08;2.83;;;;;;;9.20;59.20;99131.09;4459341;32;33523;-82
2023/04/07 10:58:34;;;;;;;0.93;0.93;;;;;;;8.97;61.46;99135.62;4471877;32;35987;-84
2023/04/07 11:01:05;;;;;;;3.80;3.50;;;;;;;9.76;60.21;99127.94;4471948;32;35286;-83
2023/04/07 11:03:34;;;;;;;3.37;3.08;;;;;;;9.14;60.44;99127.66;4485857;32;34075;-84
2023/04/07 11:06:13;;;;;;;1.12;1.10;;;;;;;8.41;63.84;99128.12;4485853;32;34265;-84
2023/04/07 11:08:43;;;;;;;1.52;1.42;;;;;;;8.97;62.21;99120.88;4458621;32;34503;-84
2023/04/07 11:11:20;;;;;;;2.03;1.92;;;;;;;8.71;59.80;99131.44;4485524;32;34340;-84
2023/04/07 11:13:49;;;;;;;1.20;1.12;;;;;;;8.44;62.32;99125.56;4471760;32;34240;-84
2023/04/07 11:16:19;;;;;;;1.77;1.40;;;;;;;9.53;61.28;99131.66;4458870;32;34604;-84
2023/04/07 11:18:47;;;;;;;2.22;2.10;;;;;;;8.81;61.50;99137.47;4408578;32;1933716;-84
2023/04/07 11:21:18;;;;;;;2.25;2.10;;;;;;;9.60;61.14;99128.12;4469912;32;34059;-84
2023/04/07 11:23:47;;;;;;;0.82;0.82;;;;;;;9.23;61.73;99137.97;4469896;32;33419;-83
2023/04/07 11:26:16;;;;;;;1.90;1.80;;;;;;;9.22;59.85;99137.13;4468602;32;33418;-84
2023/04/07 11:28:52;;;;;;;2.50;2.30;;;;;;;9.31;58.83;99125.78;4469624;32;34919;-84
2023/04/07 11:31:30;;;;;;;1.55;1.42;;;;;;;9.20;59.31;99131.09;4469818;32;35027;-84
2023/04/07 11:34:03;;;;;;;2.05;1.75;;;;;;;8.37;62.04;99131.63;4469828;32;33161;-84
2023/04/07 11:36:33;;;;;;;1.83;1.67;;;;;;;9.11;58.56;99125.97;4469598;32;33560;-84
2023/04/07 11:39:02;;;;;;;1.30;1.20;;;;;;;8.97;59.28;99135.62;4468439;32;35575;-84
2023/04/07 11:41:31;;;;;;;4.62;4.15;;;;;;;8.64;61.10;99130.63;4468329;32;35445;-84
2023/04/07 11:44:08;;;;;;;5.22;4.72;;;;;;;8.20;61.09;99130.84;4468380;32;36413;-84
2023/04/07 11:46:51;;;;;;;2.22;2.08;;;;;;;8.15;62.86;99134.31;4469504;32;34621;-83
2023/04/07 11:49:20;;;;;;;2.33;2.15;;;;;;;8.21;63.53;99129.97;4468327;32;34936;-84
2023/04/07 11:52:00;;;;;;;2.05;1.95;;;;;;;8.56;61.17;99124.63;4469410;32;34349;-85
2023/04/07 11:54:45;;;;;;;1.52;1.45;;;;;;;8.77;58.81;99131.44;4469425;32;34372;-84